Time;durP1;ratioP1;P1;durP2;ratioP2;P2;SDS_P1;SDS_P2;PMS_P1;PMS_P2;Temp;Humidity;BMP_temperature;BMP_pressure;BME280_temperature;BME280_humidity;BME280_pressure;Samples;Min_cycle;Max_cycle;Signal;HPM_P1;HPM_P2
2022/11/13 00:01:55;;;;;;;14.18;8.27;;;5.40;79.20;;;;;;5034584;28;20052;-77
2022/11/13 00:04:20;;;;;;;16.05;10.00;;;5.40;79.10;;;;;;5034768;28;20657;-76
2022/11/13 00:06:46;;;;;;;17.63;10.25;;;5.40;78.80;;;;;;5034806;28;20017;-76
2022/11/13 00:09:11;;;;;;;18.95;10.85;;;5.40;78.60;;;;;;5034651;28;20053;-77
2022/11/13 00:11:37;;;;;;;17.40;10.05;;;5.30;78.40;;;;;;5034549;28;20104;-76
2022/11/13 00:14:03;;;;;;;16.08;9.30;;;5.30;77.90;;;;;;5034689;28;20025;-76
2022/11/13 00:16:29;;;;;;;13.98;7.80;;;5.30;77.70;;;;;;5034482;28;20040;-76
2022/11/13 00:18:54;;;;;;;9.32;6.07;;;5.20;77.70;;;;;;5034580;28;20022;-76
2022/11/13 00:21:22;;;;;;;7.70;4.45;;;5.20;77.80;;;;;;5034778;28;20026;-76
2022/11/13 00:23:49;;;;;;;7.90;4.57;;;5.20;77.90;;;;;;5034559;28;20025;-76
2022/11/13 00:26:16;;;;;;;8.23;4.38;;;5.20;78.90;;;;;;5034778;28;20056;-76
2022/11/13 00:28:41;;;;;;;5.43;4.22;;;5.10;78.00;;;;;;5034506;28;20028;-80
2022/11/13 00:31:09;;;;;;;9.70;5.30;;;5.10;78.30;;;;;;5016724;28;20045;-79
2022/11/13 00:33:35;;;;;;;8.30;5.30;;;5.00;78.40;;;;;;5034588;28;20034;-81
2022/11/13 00:36:14;;;;;;;8.02;5.53;;;5.00;78.60;;;;;;5034256;28;20044;-82
2022/11/13 00:38:39;;;;;;;13.18;5.78;;;5.00;78.80;;;;;;5034214;28;20037;-76
2022/11/13 00:41:05;;;;;;;8.70;5.53;;;5.10;78.90;;;;;;5034491;28;20017;-76
2022/11/13 00:43:30;;;;;;;8.95;6.03;;;5.00;78.80;;;;;;5016377;28;20057;-77
2022/11/13 00:45:56;;;;;;;10.32;7.32;;;5.10;78.90;;;;;;5033820;28;20029;-77
2022/11/13 00:48:22;;;;;;;12.77;7.75;;;5.10;78.50;;;;;;5034139;28;20032;-76
2022/11/13 00:50:48;;;;;;;10.25;7.32;;;5.00;77.60;;;;;;5033263;28;20025;-76
2022/11/13 00:53:14;;;;;;;11.63;7.55;;;5.00;77.60;;;;;;5033895;28;20056;-76
2022/11/13 00:55:42;;;;;;;13.13;8.60;;;4.90;77.40;;;;;;5033986;28;20032;-82
2022/11/13 00:58:09;;;;;;;16.23;8.68;;;4.90;77.00;;;;;;5033759;28;20457;-81
2022/11/13 01:00:34;;;;;;;15.45;9.45;;;4.80;76.90;;;;;;5033850;28;20028;-77
2022/11/13 01:03:00;;;;;;;14.73;8.93;;;4.80;77.10;;;;;;5033735;28;20026;-76
2022/11/13 01:05:26;;;;;;;13.95;9.07;;;4.80;77.30;;;;;;5034515;28;20097;-76
2022/11/13 01:07:52;;;;;;;14.23;8.57;;;4.80;77.30;;;;;;5037572;28;20026;-75
2022/11/13 01:10:19;;;;;;;12.73;8.32;;;4.80;77.40;;;;;;5034822;28;20021;-76
2022/11/13 01:12:45;;;;;;;13.45;8.70;;;4.80;77.40;;;;;;5034461;28;20491;-76
2022/11/13 01:15:10;;;;;;;14.00;8.68;;;4.80;77.20;;;;;;5034159;28;20028;-76
2022/11/13 01:17:36;;;;;;;13.40;8.27;;;4.80;77.20;;;;;;5033628;28;20091;-76
2022/11/13 01:20:02;;;;;;;12.57;8.45;;;4.80;77.00;;;;;;5033434;28;20071;-76
2022/11/13 01:22:28;;;;;;;12.90;8.25;;;4.70;76.90;;;;;;5033048;28;20060;-76
2022/11/13 01:24:55;;;;;;;11.80;7.75;;;4.60;77.10;;;;;;5033328;28;20056;-75
2022/11/13 01:27:20;;;;;;;12.93;7.10;;;4.60;77.20;;;;;;5033273;28;20029;-76
2022/11/13 01:29:46;;;;;;;9.18;6.13;;;4.70;77.40;;;;;;5015484;28;20098;-76
2022/11/13 01:32:12;;;;;;;8.80;6.22;;;4.60;77.20;;;;;;5033843;28;20119;-76
2022/11/13 01:34:37;;;;;;;10.20;6.72;;;4.60;77.40;;;;;;5038554;28;20036;-76
2022/11/13 01:37:03;;;;;;;11.32;7.43;;;4.60;77.50;;;;;;5033010;28;20033;-81
2022/11/13 01:39:29;;;;;;;12.48;6.93;;;4.60;77.50;;;;;;5033301;28;20029;-76
2022/11/13 01:41:54;;;;;;;12.57;7.63;;;4.60;77.40;;;;;;5032970;28;20021;-76
2022/11/13 01:44:20;;;;;;;13.00;7.55;;;4.50;77.40;;;;;;5033052;28;20506;-76
2022/11/13 01:46:56;;;;;;;17.02;10.20;;;4.60;77.40;;;;;;5031816;28;20390;-83
2022/11/13 01:49:30;;;;;;;15.45;10.10;;;4.60;77.20;;;;;;5032950;28;20449;-84
2022/11/13 01:52:00;;;;;;;14.93;9.40;;;4.50;77.00;;;;;;5033094;28;20022;-76
2022/11/13 01:54:32;;;;;;;16.98;10.45;;;4.50;77.00;;;;;;5032909;28;20037;-76
2022/11/13 01:56:58;;;;;;;16.80;9.80;;;4.50;76.90;;;;;;5032905;28;20053;-76
2022/11/13 01:59:38;;;;;;;14.77;9.82;;;4.40;76.40;;;;;;5032827;28;20034;-77
2022/11/13 02:02:04;;;;;;;14.00;9.20;;;4.40;76.60;;;;;;5033467;28;20496;-76
2022/11/13 02:04:31;;;;;;;15.75;10.13;;;4.30;76.80;;;;;;5036989;28;20061;-76
2022/11/13 02:07:00;;;;;;;15.70;10.40;;;4.30;76.90;;;;;;5036755;28;20378;-76
2022/11/13 02:09:31;;;;;;;12.88;8.85;;;4.30;77.00;;;;;;5019502;28;20386;-82
2022/11/13 02:11:57;;;;;;;12.60;8.40;;;4.30;77.10;;;;;;5019719;28;20021;-76
2022/11/13 02:14:26;;;;;;;12.25;7.25;;;4.40;77.50;;;;;;5036790;28;20045;-76
2022/11/13 02:16:57;;;;;;;10.93;6.35;;;4.40;77.50;;;;;;5036610;28;20497;-76
2022/11/13 02:19:30;;;;;;;9.23;5.63;;;4.30;77.40;;;;;;5036609;28;20064;-76
2022/11/13 02:22:06;;;;;;;9.35;5.68;;;4.30;77.40;;;;;;5036863;28;20425;-76
2022/11/13 02:24:38;;;;;;;7.40;5.28;;;4.30;77.70;;;;;;5036527;28;20057;-76
2022/11/13 02:27:09;;;;;;;8.20;5.68;;;4.30;77.90;;;;;;5036634;28;20022;-77
2022/11/13 02:29:35;;;;;;;7.30;4.97;;;4.30;78.10;;;;;;5036642;28;20482;-76
2022/11/13 02:32:01;;;;;;;7.38;4.55;;;4.30;78.10;;;;;;5036438;28;20052;-76
2022/11/13 02:34:26;;;;;;;6.15;4.22;;;4.30;78.50;;;;;;5036283;28;20032;-76
2022/11/13 02:36:52;;;;;;;8.93;4.47;;;4.40;78.30;;;;;;5018603;28;20389;-76
2022/11/13 02:39:17;;;;;;;8.35;4.78;;;4.30;78.20;;;;;;5036372;28;20022;-76
2022/11/13 02:41:43;;;;;;;5.43;4.15;;;4.40;78.20;;;;;;5036289;28;20470;-76
2022/11/13 02:44:09;;;;;;;7.50;4.30;;;4.40;78.30;;;;;;5036262;28;20478;-76
2022/11/13 02:46:34;;;;;;;8.68;4.22;;;4.50;78.40;;;;;;5036423;28;20498;-84
2022/11/13 02:49:00;;;;;;;6.88;4.30;;;4.50;78.50;;;;;;5036385;28;20021;-76
2022/11/13 02:51:26;;;;;;;6.28;4.30;;;4.60;78.50;;;;;;5036950;28;20017;-84
2022/11/13 02:53:51;;;;;;;6.35;4.20;;;4.60;78.60;;;;;;5036624;28;20048;-83
2022/11/13 02:56:17;;;;;;;6.15;4.60;;;4.60;78.50;;;;;;5036113;28;20025;-76
2022/11/13 02:58:43;;;;;;;7.55;4.55;;;4.70;78.60;;;;;;5036137;28;20453;-76
2022/11/13 03:01:08;;;;;;;7.45;4.97;;;4.80;78.50;;;;;;5035997;28;20084;-76
2022/11/13 03:03:34;;;;;;;7.63;4.80;;;4.80;78.60;;;;;;5035946;28;20091;-84
2022/11/13 03:06:00;;;;;;;7.28;4.90;;;4.90;78.40;;;;;;5036089;28;20041;-76
2022/11/13 03:08:25;;;;;;;6.85;4.80;;;4.80;78.10;;;;;;5035800;28;20036;-76
2022/11/13 03:10:52;;;;;;;6.38;4.70;;;4.80;78.20;;;;;;5035907;28;20132;-76
2022/11/13 03:13:17;;;;;;;6.97;5.15;;;4.90;78.40;;;;;;5034743;28;20048;-76
2022/11/13 03:15:43;;;;;;;8.90;6.25;;;4.90;78.30;;;;;;5035764;28;20463;-76
2022/11/13 03:18:10;;;;;;;14.07;6.72;;;4.90;78.00;;;;;;5035668;28;20103;-76
2022/11/13 03:20:38;;;;;;;9.43;6.43;;;4.90;77.80;;;;;;5035354;28;20048;-76
2022/11/13 03:23:04;;;;;;;16.63;9.00;;;4.90;77.80;;;;;;5035491;28;20032;-76
2022/11/13 03:25:29;;;;;;;12.60;8.18;;;4.50;79.00;;;;;;5035494;28;20022;-76
2022/11/13 03:27:55;;;;;;;14.32;8.48;;;4.30;80.40;;;;;;5035453;28;20022;-76
2022/11/13 03:30:21;;;;;;;17.48;8.85;;;4.30;80.60;;;;;;5035590;28;20033;-76
2022/11/13 03:32:47;;;;;;;15.93;8.15;;;4.40;80.80;;;;;;5035400;28;20498;-82
2022/11/13 03:35:12;;;;;;;22.70;9.68;;;4.30;81.00;;;;;;5035397;28;20027;-76
2022/11/13 03:37:38;;;;;;;26.00;9.27;;;4.30;82.20;;;;;;5035810;28;20030;-76
2022/11/13 03:40:04;;;;;;;18.02;8.88;;;4.20;83.90;;;;;;5035657;28;20048;-76
2022/11/13 03:42:30;;;;;;;23.50;9.27;;;4.30;84.10;;;;;;5035205;28;20363;-76
2022/11/13 03:44:55;;;;;;;18.95;8.98;;;4.40;84.70;;;;;;5017290;28;20022;-76
2022/11/13 03:47:21;;;;;;;17.05;9.13;;;4.40;84.40;;;;;;5036027;28;20504;-76
2022/11/13 03:49:47;;;;;;;16.98;10.18;;;4.40;84.40;;;;;;5045617;28;20087;-75
2022/11/13 03:52:12;;;;;;;25.35;11.15;;;4.50;85.80;;;;;;5040396;28;20009;-83
2022/11/13 03:54:38;;;;;;;24.10;12.15;;;4.50;85.00;;;;;;5047058;28;20014;-81
2022/11/13 03:57:03;;;;;;;23.67;11.50;;;4.50;85.00;;;;;;5044307;28;20112;-85
2022/11/13 03:59:29;;;;;;;31.20;12.00;;;4.50;85.10;;;;;;5035674;28;20156;-84
2022/11/13 04:01:55;;;;;;;28.02;11.48;;;4.60;85.10;;;;;;5035504;28;20092;-85
2022/11/13 04:04:21;;;;;;;21.67;11.02;;;4.60;85.20;;;;;;5034700;28;20067;-75
2022/11/13 04:06:46;;;;;;;23.85;11.13;;;4.60;85.10;;;;;;5016825;28;20029;-76
2022/11/13 04:09:12;;;;;;;23.55;11.38;;;4.60;85.20;;;;;;5034947;28;20026;-86
2022/11/13 04:11:37;;;;;;;21.95;9.32;;;4.60;85.40;;;;;;5034864;28;20032;-76
2022/11/13 04:14:03;;;;;;;20.65;9.93;;;4.60;86.20;;;;;;5034469;28;20018;-76
2022/11/13 04:16:28;;;;;;;18.23;9.65;;;4.60;85.50;;;;;;5016723;28;20044;-75
2022/11/13 04:18:54;;;;;;;17.90;9.13;;;4.60;85.60;;;;;;5034490;28;20552;-75
2022/11/13 04:21:20;;;;;;;18.35;8.65;;;4.60;85.80;;;;;;5034521;28;20040;-76
2022/11/13 04:23:45;;;;;;;19.05;8.80;;;4.70;86.00;;;;;;5034370;28;20025;-75
2022/11/13 04:26:11;;;;;;;15.95;8.38;;;4.70;86.00;;;;;;5034401;28;20473;-76
2022/11/13 04:28:36;;;;;;;18.13;8.20;;;4.70;86.00;;;;;;5034341;28;20481;-76
2022/11/13 04:31:02;;;;;;;12.73;7.68;;;4.70;85.90;;;;;;5034244;28;20033;-75
2022/11/13 04:33:27;;;;;;;35.35;9.68;;;4.70;85.80;;;;;;5034230;28;20021;-76
2022/11/13 04:35:53;;;;;;;11.00;7.65;;;4.70;85.80;;;;;;5034270;28;20478;-76
2022/11/13 04:38:19;;;;;;;17.33;8.40;;;4.70;86.10;;;;;;5034130;28;20060;-77
2022/11/13 04:40:49;;;;;;;21.45;8.23;;;4.70;86.50;;;;;;5034184;28;20100;-76
2022/11/13 04:43:15;;;;;;;10.45;7.20;;;4.70;86.80;;;;;;5034143;28;20076;-84
2022/11/13 04:45:40;;;;;;;23.35;7.78;;;4.70;86.80;;;;;;5034216;28;20482;-83
2022/11/13 04:48:06;;;;;;;20.33;7.72;;;4.70;87.30;;;;;;5034549;28;20031;-79
2022/11/13 04:50:32;;;;;;;16.33;7.97;;;4.70;86.80;;;;;;5034108;28;20025;-78
2022/11/13 04:52:57;;;;;;;16.23;8.05;;;4.70;86.90;;;;;;5034038;28;20021;-78
2022/11/13 04:55:23;;;;;;;18.77;7.82;;;4.60;87.00;;;;;;5033846;28;20025;-79
2022/11/13 04:57:50;;;;;;;15.32;8.60;;;4.60;87.60;;;;;;5033748;28;20101;-81
2022/11/13 05:00:16;;;;;;;13.25;7.75;;;4.70;87.80;;;;;;5033727;28;20021;-80
2022/11/13 05:02:42;;;;;;;11.93;7.78;;;4.70;87.80;;;;;;5033873;28;20025;-77
2022/11/13 05:05:08;;;;;;;10.55;7.13;;;4.70;87.80;;;;;;5015952;28;20025;-76
2022/11/13 05:07:33;;;;;;;9.55;7.10;;;4.70;87.70;;;;;;5033659;28;20025;-76
2022/11/13 05:09:59;;;;;;;12.43;6.90;;;4.70;87.70;;;;;;5015766;28;20394;-76
2022/11/13 05:12:24;;;;;;;10.20;7.10;;;4.70;87.40;;;;;;5033444;28;20378;-76
2022/11/13 05:14:50;;;;;;;8.93;6.88;;;4.80;87.40;;;;;;5033581;28;20022;-77
2022/11/13 05:17:16;;;;;;;47.58;7.82;;;4.80;87.20;;;;;;5033342;28;20629;-76
2022/11/13 05:19:41;;;;;;;25.58;8.63;;;4.70;86.10;;;;;;5033689;28;20034;-77
2022/11/13 05:22:07;;;;;;;10.48;7.38;;;4.60;86.50;;;;;;5033429;28;20022;-77
2022/11/13 05:24:33;;;;;;;14.07;5.72;;;4.60;86.80;;;;;;5033358;28;20036;-76
2022/11/13 05:26:58;;;;;;;9.50;6.38;;;4.60;86.90;;;;;;5033208;28;20448;-76
2022/11/13 05:29:24;;;;;;;17.73;7.30;;;4.50;86.80;;;;;;5033332;28;20026;-76
2022/11/13 05:31:50;;;;;;;11.13;6.75;;;4.60;86.70;;;;;;5033131;28;20048;-76
2022/11/13 05:34:15;;;;;;;9.98;7.38;;;4.60;86.80;;;;;;5033213;28;20105;-77
2022/11/13 05:36:41;;;;;;;10.30;6.85;;;4.60;86.60;;;;;;5032647;28;20029;-82
2022/11/13 05:39:06;;;;;;;13.32;7.63;;;4.60;86.70;;;;;;5033289;28;20478;-76
2022/11/13 05:41:32;;;;;;;11.85;8.50;;;4.50;86.90;;;;;;5033099;28;20026;-77
2022/11/13 05:43:58;;;;;;;18.77;8.60;;;4.50;87.00;;;;;;5033276;28;20087;-76
2022/11/13 05:46:28;;;;;;;9.75;7.13;;;4.40;87.20;;;;;;5033174;28;20044;-76
2022/11/13 05:48:57;;;;;;;16.63;9.13;;;4.40;87.50;;;;;;5033116;28;20094;-76
2022/11/13 05:51:32;;;;;;;23.17;9.45;;;4.40;87.80;;;;;;5033073;28;20100;-76
2022/11/13 05:53:58;;;;;;;10.68;7.60;;;4.40;87.70;;;;;;5032805;28;20025;-76
2022/11/13 05:56:30;;;;;;;12.05;7.65;;;4.50;87.80;;;;;;5015155;28;20180;-76
2022/11/13 05:58:57;;;;;;;10.45;7.55;;;4.50;88.70;;;;;;5033004;28;20030;-76
2022/11/13 06:01:25;;;;;;;10.55;7.15;;;4.60;87.70;;;;;;5032757;28;20050;-76
2022/11/13 06:03:51;;;;;;;21.60;7.38;;;4.60;87.50;;;;;;5032683;28;20076;-76
2022/11/13 06:06:19;;;;;;;11.05;6.45;;;4.60;87.30;;;;;;5032820;28;20071;-76
2022/11/13 06:08:47;;;;;;;8.57;6.50;;;4.60;87.20;;;;;;5032787;28;20100;-76
2022/11/13 06:11:15;;;;;;;6.82;6.13;;;4.70;87.10;;;;;;5032665;28;20021;-76
2022/11/13 06:13:41;;;;;;;9.05;6.25;;;4.60;86.80;;;;;;5032882;28;20026;-75
2022/11/13 06:16:14;;;;;;;14.05;6.45;;;4.70;86.90;;;;;;5032888;28;20152;-76
2022/11/13 06:18:42;;;;;;;10.75;7.05;;;4.70;86.60;;;;;;5032871;28;20030;-84
2022/11/13 06:21:11;;;;;;;15.23;6.60;;;4.70;86.50;;;;;;5034043;28;20567;-76
2022/11/13 06:23:38;;;;;;;9.40;5.90;;;4.80;86.50;;;;;;5035212;28;20057;-74
2022/11/13 06:26:10;;;;;;;8.15;6.40;;;4.70;86.30;;;;;;5042886;28;20351;-76
2022/11/13 06:28:36;;;;;;;10.90;6.25;;;4.70;86.30;;;;;;5037974;28;20026;-75
2022/11/13 06:31:08;;;;;;;7.65;6.32;;;4.70;86.30;;;;;;5037823;28;20390;-75
2022/11/13 06:33:34;;;;;;;8.60;6.13;;;4.70;86.20;;;;;;5033020;28;20029;-75
2022/11/13 06:36:04;;;;;;;8.00;5.85;;;4.80;86.10;;;;;;5032684;28;20037;-75
2022/11/13 06:38:32;;;;;;;8.48;5.65;;;4.70;86.10;;;;;;5032172;28;20045;-75
2022/11/13 06:40:57;;;;;;;8.88;6.25;;;4.70;85.90;;;;;;5032648;28;20017;-75
2022/11/13 06:43:23;;;;;;;15.63;6.03;;;4.70;85.80;;;;;;5032653;28;20029;-75
2022/11/13 06:45:48;;;;;;;6.78;5.55;;;4.80;85.70;;;;;;5033092;28;20505;-76
2022/11/13 06:48:14;;;;;;;7.82;5.82;;;4.70;85.50;;;;;;5032698;28;20135;-76
2022/11/13 06:50:39;;;;;;;46.90;9.18;;;4.70;85.40;;;;;;5036183;28;20025;-76
2022/11/13 06:53:05;;;;;;;31.90;8.43;;;4.50;85.60;;;;;;5036142;28;20018;-77
2022/11/13 06:55:30;;;;;;;9.90;7.35;;;4.40;86.10;;;;;;5036196;28;20513;-75
2022/11/13 06:57:56;;;;;;;9.05;7.15;;;4.50;86.40;;;;;;5035931;28;20044;-76
2022/11/13 07:00:22;;;;;;;12.88;6.78;;;4.50;86.10;;;;;;5038843;28;20021;-76
2022/11/13 07:02:49;;;;;;;8.00;6.25;;;4.50;85.90;;;;;;5056038;28;20473;-75
2022/11/13 07:05:15;;;;;;;10.68;6.70;;;4.60;85.70;;;;;;5056182;28;20029;-76
2022/11/13 07:07:40;;;;;;;7.18;5.85;;;4.60;85.40;;;;;;5055925;28;20047;-76
2022/11/13 07:10:06;;;;;;;6.70;5.90;;;4.60;85.10;;;;;;5038399;28;20025;-79
2022/11/13 07:12:32;;;;;;;15.88;6.95;;;4.60;85.10;;;;;;5072278;28;20031;-76
2022/11/13 07:14:57;;;;;;;10.55;6.75;;;4.50;84.60;;;;;;5043006;28;20064;-86
2022/11/13 07:17:23;;;;;;;8.85;6.40;;;4.50;84.70;;;;;;5055998;28;20442;-82
2022/11/13 07:19:49;;;;;;;12.02;6.70;;;4.50;84.80;;;;;;5056388;28;20359;-82
2022/11/13 07:22:14;;;;;;;11.20;8.00;;;4.50;84.80;;;;;;5055885;28;20082;-83
2022/11/13 07:24:41;;;;;;;8.85;7.00;;;4.30;85.00;;;;;;5038455;28;20033;-83
2022/11/13 07:27:07;;;;;;;9.85;7.00;;;4.20;84.90;;;;;;5055983;28;20029;-84
2022/11/13 07:29:33;;;;;;;16.95;7.40;;;4.20;85.10;;;;;;5056009;28;20121;-85
2022/11/13 07:31:58;;;;;;;12.63;6.30;;;4.20;85.00;;;;;;5055216;28;20051;-76
2022/11/13 07:34:24;;;;;;;14.88;6.82;;;4.20;84.80;;;;;;5055824;28;20063;-83
2022/11/13 07:36:49;;;;;;;6.72;5.40;;;4.10;84.70;;;;;;5055546;28;20037;-80
2022/11/13 07:39:15;;;;;;;6.63;5.50;;;3.90;85.10;;;;;;5055637;28;20054;-77
2022/11/13 07:41:40;;;;;;;6.57;5.72;;;3.90;86.30;;;;;;5055811;28;20052;-81
2022/11/13 07:44:06;;;;;;;9.80;6.95;;;4.00;86.10;;;;;;5055409;28;20529;-75
2022/11/13 07:46:32;;;;;;;10.88;6.63;;;4.10;86.40;;;;;;5055100;28;20492;-76
2022/11/13 07:48:57;;;;;;;7.55;6.05;;;4.30;86.30;;;;;;5055376;28;20057;-76
2022/11/13 07:51:23;;;;;;;8.10;6.35;;;4.40;85.60;;;;;;5065549;28;20029;-78
2022/11/13 07:53:48;;;;;;;20.23;7.38;;;4.40;84.80;;;;;;5071220;28;20036;-76
2022/11/13 07:56:14;;;;;;;9.00;7.00;;;4.40;84.50;;;;;;5055150;28;20450;-73
2022/11/13 07:58:40;;;;;;;8.55;6.82;;;4.50;84.30;;;;;;5055527;28;20501;-77
2022/11/13 08:01:05;;;;;;;10.80;7.18;;;4.50;84.40;;;;;;5055204;28;20096;-74
2022/11/13 08:03:32;;;;;;;12.88;8.63;;;4.60;84.60;;;;;;5055553;28;20069;-75
2022/11/13 08:06:03;;;;;;;32.47;9.10;;;4.70;84.40;;;;;;5055114;28;20441;-74
2022/11/13 08:08:30;;;;;;;11.20;8.07;;;4.70;84.00;;;;;;5037030;28;20029;-79
2022/11/13 08:10:55;;;;;;;9.10;6.95;;;4.60;83.90;;;;;;5054552;28;20497;-75
2022/11/13 08:13:21;;;;;;;10.55;6.72;;;4.60;84.00;;;;;;5054571;28;20025;-74
2022/11/13 08:15:47;;;;;;;10.93;8.07;;;4.70;84.10;;;;;;5054719;28;20036;-75
2022/11/13 08:18:13;;;;;;;10.02;7.60;;;4.80;83.80;;;;;;5036667;28;20037;-77
2022/11/13 08:20:38;;;;;;;26.40;8.13;;;4.80;83.70;;;;;;5036637;28;20028;-77
2022/11/13 08:23:04;;;;;;;11.30;7.82;;;4.80;84.10;;;;;;5054443;28;20021;-76
2022/11/13 08:25:32;;;;;;;23.05;9.18;;;4.90;84.40;;;;;;5054387;28;20107;-74
2022/11/13 08:27:58;;;;;;;10.10;7.70;;;4.90;84.30;;;;;;5054303;28;20066;-74
2022/11/13 08:30:25;;;;;;;15.23;8.52;;;5.00;84.30;;;;;;5055742;28;20025;-83
2022/11/13 08:32:51;;;;;;;10.38;7.45;;;5.00;84.20;;;;;;5054467;28;20045;-84
2022/11/13 08:35:17;;;;;;;9.40;7.38;;;5.20;84.00;;;;;;5055173;28;20473;-83
2022/11/13 08:37:42;;;;;;;9.75;7.25;;;5.20;83.60;;;;;;5057941;28;20040;-85
2022/11/13 08:40:09;;;;;;;12.43;8.18;;;5.30;83.40;;;;;;5057520;28;20462;-83
2022/11/13 08:42:34;;;;;;;10.98;8.05;;;5.40;82.90;;;;;;5055593;28;20071;-79
2022/11/13 08:45:00;;;;;;;10.82;6.97;;;5.40;82.30;;;;;;5054169;28;20028;-77
2022/11/13 08:47:27;;;;;;;8.60;7.00;;;5.40;81.80;;;;;;5052742;28;20021;-76
2022/11/13 08:49:53;;;;;;;11.57;7.53;;;5.40;81.80;;;;;;5053886;28;20029;-74
2022/11/13 08:52:19;;;;;;;10.38;7.40;;;5.50;81.80;;;;;;5053960;28;20043;-75
2022/11/13 08:54:45;;;;;;;13.07;7.78;;;5.60;81.60;;;;;;5055692;28;20096;-91
2022/11/13 08:57:10;;;;;;;11.57;7.80;;;5.60;81.70;;;;;;5055898;28;20040;-81
2022/11/13 08:59:36;;;;;;;9.65;7.32;;;5.60;81.30;;;;;;5054476;28;20032;-77
2022/11/13 09:02:02;;;;;;;10.95;7.50;;;5.70;81.90;;;;;;5052539;28;20021;-78
2022/11/13 09:04:27;;;;;;;12.40;7.95;;;5.80;81.30;;;;;;5053778;28;20484;-80
2022/11/13 09:06:53;;;;;;;12.07;9.05;;;5.90;80.90;;;;;;5054629;28;20021;-80
2022/11/13 09:09:19;;;;;;;18.02;9.77;;;6.00;80.60;;;;;;5053913;28;20033;-78
2022/11/13 09:11:45;;;;;;;10.70;7.80;;;6.00;78.90;;;;;;5053467;28;20025;-75
2022/11/13 09:14:10;;;;;;;24.02;8.10;;;5.80;80.10;;;;;;5062286;28;20031;-80
2022/11/13 09:16:36;;;;;;;11.77;7.30;;;5.90;81.80;;;;;;5076496;28;20067;-79
2022/11/13 09:19:02;;;;;;;7.68;6.28;;;6.30;83.80;;;;;;5075846;28;20017;-78
2022/11/13 09:21:28;;;;;;;6.47;5.65;;;6.80;82.50;;;;;;5073413;28;20082;-76
2022/11/13 09:23:54;;;;;;;7.20;5.72;;;7.10;79.70;;;;;;5058886;28;20493;-74
2022/11/13 09:26:20;;;;;;;7.78;6.47;;;7.40;77.60;;;;;;5053593;28;20017;-78
2022/11/13 09:28:45;;;;;;;7.95;6.40;;;7.90;76.20;;;;;;5053557;28;20036;-76
2022/11/13 09:31:11;;;;;;;7.50;5.93;;;7.80;73.60;;;;;;5053559;28;20124;-76
2022/11/13 09:33:36;;;;;;;7.68;6.40;;;7.60;73.60;;;;;;5054715;28;20040;-75
2022/11/13 09:36:09;;;;;;;8.93;6.55;;;7.50;73.80;;;;;;5052940;28;20028;-76
2022/11/13 09:38:34;;;;;;;9.68;7.05;;;7.30;74.20;;;;;;5052922;28;20228;-75
2022/11/13 09:41:05;;;;;;;9.80;7.25;;;7.20;74.90;;;;;;5052932;28;20588;-75
2022/11/13 09:43:37;;;;;;;9.05;7.60;;;7.20;75.40;;;;;;5053001;28;20059;-77
2022/11/13 09:46:38;;;;;;;9.55;7.97;;;7.10;75.50;;;;;;5053758;28;20024;-86
2022/11/13 09:49:33;;;;;;;9.88;7.60;;;7.00;75.60;;;;;;5052972;28;20529;-76
2022/11/13 09:52:09;;;;;;;9.75;7.95;;;7.00;76.10;;;;;;5053057;28;20071;-76
2022/11/13 09:54:35;;;;;;;9.27;7.43;;;7.00;76.30;;;;;;5052870;28;20052;-77
2022/11/13 09:57:18;;;;;;;10.55;8.02;;;7.00;76.20;;;;;;5035193;28;20052;-76
2022/11/13 09:59:53;;;;;;;8.38;6.88;;;6.90;76.40;;;;;;5053083;28;20025;-85
2022/11/13 10:02:23;;;;;;;9.30;7.60;;;6.90;76.70;;;;;;5052678;28;20071;-76
2022/11/13 10:05:12;;;;;;;10.85;7.80;;;7.00;76.60;;;;;;5034907;28;20488;-76
2022/11/13 10:07:37;;;;;;;9.88;7.95;;;7.10;76.50;;;;;;5052971;28;20473;-86
2022/11/13 10:10:21;;;;;;;11.32;8.50;;;7.10;76.80;;;;;;5053560;28;20064;-76
2022/11/13 10:12:50;;;;;;;8.85;7.53;;;7.10;76.80;;;;;;5066862;28;20044;-77
2022/11/13 10:15:17;;;;;;;12.07;9.70;;;7.20;76.80;;;;;;5048667;28;20032;-83
2022/11/13 10:18:00;;;;;;;10.55;9.00;;;7.20;76.30;;;;;;5047729;28;20036;-77
2022/11/13 10:20:42;;;;;;;13.68;10.90;;;7.30;76.50;;;;;;5052761;28;20083;-86
2022/11/13 10:23:20;;;;;;;13.63;10.77;;;7.40;76.20;;;;;;5038162;28;20032;-87
2022/11/13 10:25:50;;;;;;;11.73;9.80;;;7.40;75.90;;;;;;5058382;28;20508;-81
2022/11/13 10:28:22;;;;;;;11.93;9.57;;;7.40;75.90;;;;;;5051105;28;20454;-83
2022/11/13 10:30:48;;;;;;;12.73;9.80;;;7.50;75.60;;;;;;5056148;28;20008;-80
2022/11/13 10:33:21;;;;;;;10.10;8.55;;;7.60;75.30;;;;;;5056554;28;20124;-86
2022/11/13 10:36:13;;;;;;;9.82;8.40;;;7.60;75.20;;;;;;5035480;28;20065;-81
2022/11/13 10:38:43;;;;;;;10.45;8.25;;;7.70;75.80;;;;;;5053968;28;20739;-83
2022/11/13 10:41:15;;;;;;;12.40;9.55;;;7.90;75.10;;;;;;5051507;28;20021;-83
2022/11/13 10:43:57;;;;;;;15.82;12.30;;;8.10;74.80;;;;;;5055181;28;20071;-77
2022/11/13 10:46:42;;;;;;;12.38;9.55;;;8.00;75.10;;;;;;5054403;28;20143;-86
2022/11/13 10:49:21;;;;;;;11.82;9.32;;;8.50;74.40;;;;;;5057363;28;20075;-77
2022/11/13 10:51:57;;;;;;;13.18;10.38;;;9.00;72.10;;;;;;5053301;28;20446;-82
2022/11/13 10:54:23;;;;;;;10.38;8.90;;;9.50;69.00;;;;;;5069490;28;20043;-78
2022/11/13 10:56:56;;;;;;;9.93;7.68;;;10.40;68.20;;;;;;5066066;28;20025;-85
2022/11/13 10:59:22;;;;;;;9.80;8.10;;;11.10;65.10;;;;;;5055665;28;20023;-77
2022/11/13 11:01:48;;;;;;;9.57;7.55;;;11.40;61.50;;;;;;5059623;28;20428;-83
2022/11/13 11:04:28;;;;;;;9.27;7.13;;;11.70;60.50;;;;;;5056304;28;20021;-84
2022/11/13 11:06:55;;;;;;;8.68;7.72;;;12.30;59.00;;;;;;5052134;28;20017;-77
2022/11/13 11:09:31;;;;;;;7.28;6.57;;;12.70;56.30;;;;;;5057215;28;20021;-82
2022/11/13 11:12:19;;;;;;;8.05;7.25;;;12.70;55.90;;;;;;5051641;28;20055;-78
2022/11/13 11:14:50;;;;;;;7.88;6.97;;;13.10;55.30;;;;;;5055285;28;20025;-86
2022/11/13 11:17:18;;;;;;;8.82;7.47;;;13.10;53.80;;;;;;5050686;28;20029;-78
2022/11/13 11:19:51;;;;;;;8.60;7.68;;;13.40;53.00;;;;;;5056417;28;20036;-83
2022/11/13 11:22:21;;;;;;;8.73;7.43;;;13.10;54.50;;;;;;5039587;28;20085;-89
2022/11/13 11:25:01;;;;;;;8.93;7.88;;;13.20;53.20;;;;;;5054724;28;20040;-87
2022/11/13 11:27:41;;;;;;;9.35;8.05;;;13.50;52.80;;;;;;5055640;28;20060;-84
2022/11/13 11:30:20;;;;;;;9.98;8.20;;;13.80;51.50;;;;;;5057225;28;20021;-78
2022/11/13 11:32:55;;;;;;;10.15;7.93;;;13.80;52.50;;;;;;5055667;28;20045;-78
2022/11/13 11:35:24;;;;;;;8.75;7.85;;;13.70;52.60;;;;;;5059139;28;20032;-79
2022/11/13 11:38:03;;;;;;;11.73;8.75;;;14.10;51.10;;;;;;5055592;28;20558;-80
2022/11/13 11:40:52;;;;;;;10.18;8.13;;;14.10;49.80;;;;;;5054967;28;20028;-82
2022/11/13 11:43:46;;;;;;;9.57;8.07;;;14.30;49.90;;;;;;5049895;28;20033;-78
2022/11/13 11:46:13;;;;;;;10.57;8.68;;;14.60;49.80;;;;;;5036759;28;20028;-78
2022/11/13 11:48:39;;;;;;;9.55;8.55;;;14.90;47.00;;;;;;5054893;28;20033;-78
2022/11/13 11:51:24;;;;;;;8.65;7.50;;;14.50;48.00;;;;;;5037538;28;20488;-82
2022/11/13 11:53:59;;;;;;;17.77;8.98;;;14.60;49.30;;;;;;5055319;28;20465;-78
2022/11/13 11:56:39;;;;;;;10.25;9.18;;;15.10;47.30;;;;;;5054823;28;20444;-78
2022/11/13 11:59:38;;;;;;;10.23;8.55;;;15.50;46.20;;;;;;5054947;28;20500;-79
2022/11/13 12:02:35;;;;;;;11.15;9.40;;;16.00;44.70;;;;;;5055700;28;20025;-79
2022/11/13 12:05:12;;;;;;;11.15;9.18;;;15.90;43.90;;;;;;5055572;28;20139;-80
2022/11/13 12:07:51;;;;;;;10.15;8.65;;;16.00;44.30;;;;;;5055627;28;20148;-89
2022/11/13 12:10:36;;;;;;;11.90;9.20;;;16.50;43.70;;;;;;5056131;28;20025;-86
2022/11/13 12:13:12;;;;;;;11.55;9.88;;;16.70;42.60;;;;;;5058436;28;20469;-93
2022/11/13 12:15:50;;;;;;;11.52;9.95;;;17.30;40.70;;;;;;5061328;28;20029;-93
2022/11/13 12:18:35;;;;;;;11.38;9.27;;;18.20;39.20;;;;;;5056881;28;20021;-76
2022/11/13 12:21:19;;;;;;;9.38;8.38;;;19.40;36.90;;;;;;5056714;28;20472;-75
2022/11/13 12:24:10;;;;;;;9.55;8.35;;;20.70;34.20;;;;;;5055909;28;20091;-79
2022/11/13 12:26:58;;;;;;;9.82;8.55;;;21.90;32.20;;;;;;5063572;28;20001;-76
2022/11/13 12:29:47;;;;;;;9.05;8.13;;;22.90;29.70;;;;;;5055572;28;20029;-75
2022/11/13 12:32:15;;;;;;;8.32;7.25;;;23.80;28.10;;;;;;5053994;28;20052;-75
2022/11/13 12:34:46;;;;;;;9.45;8.43;;;24.90;26.00;;;;;;5055264;28;20025;-75
2022/11/13 12:37:16;;;;;;;8.02;7.05;;;25.30;24.00;;;;;;5054465;28;20037;-75
2022/11/13 12:39:57;;;;;;;7.78;7.07;;;25.40;23.60;;;;;;5054296;28;20032;-79
2022/11/13 12:42:33;;;;;;;8.52;7.70;;;26.40;22.30;;;;;;5055566;28;20052;-76
2022/11/13 12:45:23;;;;;;;8.43;7.32;;;25.90;22.10;;;;;;5055612;28;20036;-75
2022/11/13 12:47:51;;;;;;;6.20;5.60;;;27.00;21.10;;;;;;5053679;28;20489;-75
2022/11/13 12:50:27;;;;;;;7.03;6.32;;;28.30;19.40;;;;;;5054045;28;20098;-76
2022/11/13 12:53:01;;;;;;;6.97;6.28;;;28.90;17.60;;;;;;5053913;28;20091;-76
2022/11/13 12:55:33;;;;;;;6.25;5.65;;;28.90;17.20;;;;;;5053826;28;20017;-75
2022/11/13 12:58:19;;;;;;;5.57;5.10;;;29.10;17.90;;;;;;5053577;28;20040;-76